Sea Valentia, Ireland
Current Conditions -  °F | °C
As of 8:30 AM on Monday 20 Oct 2014 (Local Time) from EIKY Reporting Station
Light Rain Light Rain  
Wind Chill: 52°   Ceiling: 1700
Heat Index: 52°   Visibility: 6mi
Dew Point: 50°   Wind: 7mph
Humidity: 94%   Direction: 240°WSW
Pressure: 29.94"   Gusts: NA
Location:  52.5°N, 10°W
Report Text: EIKY 200730Z 24006KT 9999 -RA FEW012 BKN017 11/10 Q1014
Loading
Personal Weather Stations






























Interactive Weather Map
Tropical Storm Tracking
New forecast layout! Learn more

10-Day Weather Forecast

Advertisements
Track Severe Weather on mobile